sensor_id;sensor_type;location;lat;lon;timestamp;pressure;altitude;pressure_sealevel;temperature;humidity
74431;BME280;62863;52.062;23.764;2023-04-03T00:11:21;1025.8;;;3;61.1
74431;BME280;62863;52.062;23.764;2023-04-03T00:51:16;1025.8;;;3;61.1
74431;BME280;62863;52.062;23.764;2023-04-03T01:22:13;1026;;;3.3;62.3
74431;BME280;62863;52.062;23.764;2023-04-03T01:31:10;1026.2;;;3.1;62.7
74431;BME280;62863;52.062;23.764;2023-04-03T01:36:37;1026.3;;;3.1;62.7
74431;BME280;62863;52.062;23.764;2023-04-03T01:41:07;1026.3;;;3.1;62.7
74431;BME280;62863;52.062;23.764;2023-04-03T01:46:39;1026.3;;;3.1;62.7
74431;BME280;62863;52.062;23.764;2023-04-03T02:16:13;1026.3;;;3;61.9
74431;BME280;62863;52.062;23.764;2023-04-03T02:41:21;1026.3;;;3;61.9
74431;BME280;62863;52.062;23.764;2023-04-03T02:45:58;1026.3;;;3;61.9
74431;BME280;62863;52.062;23.764;2023-04-03T02:51:37;1026.3;;;3;61.9
74431;BME280;62863;52.062;23.764;2023-04-03T02:56:29;1026.3;;;3;61.9
74431;BME280;62863;52.062;23.764;2023-04-03T03:01:37;1026.3;;;3;61.9
74431;BME280;62863;52.062;23.764;2023-04-03T03:06:12;1026.7;;;2.4;58.7
74431;BME280;62863;52.062;23.764;2023-04-03T04:36:15;1027.1;;;1.9;58.5
74431;BME280;62863;52.062;23.764;2023-04-03T04:41:27;1027.3;;;1.1;57.8
74431;BME280;62863;52.062;23.764;2023-04-03T04:51:15;1027.4;;;1.4;56.5
74431;BME280;62863;52.062;23.764;2023-04-03T04:56:23;1027.4;;;1.4;56.3
74431;BME280;62863;52.062;23.764;2023-04-03T05:06:27;1027.5;;;1.6;56.7
74431;BME280;62863;52.062;23.764;2023-04-03T05:11:37;1027.5;;;1.6;56.7
74431;BME280;62863;52.062;23.764;2023-04-03T05:16:29;1027.5;;;1.6;56.7
74431;BME280;62863;52.062;23.764;2023-04-03T05:21:37;1027.5;;;1.6;56.7
74431;BME280;62863;52.062;23.764;2023-04-03T05:26:05;1027.5;;;1.6;56.7
74431;BME280;62863;52.062;23.764;2023-04-03T05:31:27;1027.5;;;1.6;56.7
74431;BME280;62863;52.062;23.764;2023-04-03T05:36:37;1027.5;;;1.6;56.7
74431;BME280;62863;52.062;23.764;2023-04-03T05:41:12;1027.5;;;1.6;56.7
74431;BME280;62863;52.062;23.764;2023-04-03T05:46:37;1027.5;;;1.6;56.7
74431;BME280;62863;52.062;23.764;2023-04-03T05:51:09;1027.7;;;2.7;52.4
74431;BME280;62863;52.062;23.764;2023-04-03T05:56:28;1027.7;;;2.7;52.4
74431;BME280;62863;52.062;23.764;2023-04-03T06:30:57;1027.4;;;16.8;27.7
74431;BME280;62863;52.062;23.764;2023-04-03T07:01:37;1027.4;;;16.8;27.7
74431;BME280;62863;52.062;23.764;2023-04-03T07:06:09;1027.6;;;18.8;23
74431;BME280;62863;52.062;23.764;2023-04-03T07:11:27;1027.6;;;18.8;23
74431;BME280;62863;52.062;23.764;2023-04-03T07:16:23;1027.6;;;18.8;23
74431;BME280;62863;52.062;23.764;2023-04-03T07:20:58;1027.6;;;18.8;23
74431;BME280;62863;52.062;23.764;2023-04-03T08:41:15;1027.9;;;17.9;21
74431;BME280;62863;52.062;23.764;2023-04-03T09:56:18;1028.9;;;8.3;34.4
74431;BME280;62863;52.062;23.764;2023-04-03T11:11:08;1028.9;;;8.3;34.4
74431;BME280;62863;52.062;23.764;2023-04-03T11:16:33;1028.9;;;8.3;34.4
74431;BME280;62863;52.062;23.764;2023-04-03T11:21:40;1028.9;;;8.3;34.4
74431;BME280;62863;52.062;23.764;2023-04-03T11:26:31;1028.9;;;8.3;34.4
74431;BME280;62863;52.062;23.764;2023-04-03T11:31:31;1028.9;;;8.3;34.4
74431;BME280;62863;52.062;23.764;2023-04-03T11:36:18;1028.9;;;8.3;34.4
74431;BME280;62863;52.062;23.764;2023-04-03T12:01:08;1028.9;;;8.3;34.4
74431;BME280;62863;52.062;23.764;2023-04-03T12:16:32;1029.2;;;8.1;32.6
74431;BME280;62863;52.062;23.764;2023-04-03T12:26:19;1029.1;;;8.1;32.3
74431;BME280;62863;52.062;23.764;2023-04-03T12:31:08;1029.1;;;8.1;32.3
74431;BME280;62863;52.062;23.764;2023-04-03T12:51:14;1029.2;;;8;31.5
74431;BME280;62863;52.062;23.764;2023-04-03T15:11:42;1029.7;;;5.8;36.4
74431;BME280;62863;52.062;23.764;2023-04-03T15:26:08;1029.7;;;5.4;36.6
74431;BME280;62863;52.062;23.764;2023-04-03T15:36:40;1029.8;;;5.4;37
74431;BME280;62863;52.062;23.764;2023-04-03T15:41:35;1029.8;;;5.3;37.6
74431;BME280;62863;52.062;23.764;2023-04-03T15:46:27;1029.8;;;5.3;37.7
74431;BME280;62863;52.062;23.764;2023-04-03T15:51:18;1029.7;;;5.2;37.6
74431;BME280;62863;52.062;23.764;2023-04-03T15:56:28;1029.7;;;5.2;37.8
74431;BME280;62863;52.062;23.764;2023-04-03T16:00:58;1029.7;;;5.2;37.6
74431;BME280;62863;52.062;23.764;2023-04-03T16:06:22;1029.7;;;5.2;37.6
74431;BME280;62863;52.062;23.764;2023-04-03T16:11:40;1029.7;;;5.1;37.6
74431;BME280;62863;52.062;23.764;2023-04-03T16:16:08;1029.7;;;5;37.9
74431;BME280;62863;52.062;23.764;2023-04-03T16:21:28;1029.6;;;5.1;38.6
74431;BME280;62863;52.062;23.764;2023-04-03T16:25:58;1029.6;;;5;38.6
74431;BME280;62863;52.062;23.764;2023-04-03T16:31:12;1029.8;;;4.9;38.8
74431;BME280;62863;52.062;23.764;2023-04-03T16:36:42;1029.8;;;4.9;39
74431;BME280;62863;52.062;23.764;2023-04-03T16:41:08;1029.8;;;4.8;39.2
74431;BME280;62863;52.062;23.764;2023-04-03T16:46:28;1029.8;;;4.8;39.6
74431;BME280;62863;52.062;23.764;2023-04-03T16:51:21;1029.8;;;4.7;39.7
74431;BME280;62863;52.062;23.764;2023-04-03T16:56:22;1029.8;;;4.6;39.8
74431;BME280;62863;52.062;23.764;2023-04-03T17:01:42;1029.9;;;4.5;39.9
74431;BME280;62863;52.062;23.764;2023-04-03T17:06:09;1029.9;;;4.5;40.2
74431;BME280;62863;52.062;23.764;2023-04-03T17:11:28;1030;;;4.4;40.4
74431;BME280;62863;52.062;23.764;2023-04-03T17:16:08;1029.9;;;4.4;40.5
74431;BME280;62863;52.062;23.764;2023-04-03T17:21:30;1029.9;;;4.3;40.8
74431;BME280;62863;52.062;23.764;2023-04-03T17:26:42;1030;;;4.3;41.4
74431;BME280;62863;52.062;23.764;2023-04-03T17:30:58;1030;;;4.3;41.1
74431;BME280;62863;52.062;23.764;2023-04-03T17:36:28;1030;;;4.2;41.3
74431;BME280;62863;52.062;23.764;2023-04-03T17:40:58;1030.1;;;4.2;41.5
74431;BME280;62863;52.062;23.764;2023-04-03T17:46:22;1030.1;;;4.2;41.5
74431;BME280;62863;52.062;23.764;2023-04-03T17:51:42;1030.1;;;4.2;41.6
74431;BME280;62863;52.062;23.764;2023-04-03T17:56:23;1030.2;;;4.1;42.3
74431;BME280;62863;52.062;23.764;2023-04-03T18:01:29;1030.2;;;4.2;42.3
74431;BME280;62863;52.062;23.764;2023-04-03T18:06:00;1030.3;;;4.1;42.6
74431;BME280;62863;52.062;23.764;2023-04-03T18:10:58;1030.3;;;4.1;42.5
74431;BME280;62863;52.062;23.764;2023-04-03T18:16:38;1030.3;;;4.1;42.7
74431;BME280;62863;52.062;23.764;2023-04-03T18:21:20;1030.4;;;4.1;42.8
74431;BME280;62863;52.062;23.764;2023-04-03T18:26:26;1030.4;;;4.1;42.8
74431;BME280;62863;52.062;23.764;2023-04-03T18:31:26;1030.4;;;4.1;42.9
74431;BME280;62863;52.062;23.764;2023-04-03T18:36:20;1030.4;;;4;43
74431;BME280;62863;52.062;23.764;2023-04-03T18:41:42;1030.3;;;4;42.7
74431;BME280;62863;52.062;23.764;2023-04-03T18:46:22;1030.4;;;3.9;42.9
74431;BME280;62863;52.062;23.764;2023-04-03T18:51:28;1030.5;;;3.9;42.9
74431;BME280;62863;52.062;23.764;2023-04-03T18:55:58;1030.5;;;3.9;43.2
74431;BME280;62863;52.062;23.764;2023-04-03T19:01:22;1030.5;;;3.9;43
74431;BME280;62863;52.062;23.764;2023-04-03T19:06:42;1030.6;;;3.9;42.9
74431;BME280;62863;52.062;23.764;2023-04-03T19:11:22;1030.6;;;3.8;43
74431;BME280;62863;52.062;23.764;2023-04-03T19:16:28;1030.6;;;3.8;43.1
74431;BME280;62863;52.062;23.764;2023-04-03T19:21:10;1030.6;;;3.7;43.3
74431;BME280;62863;52.062;23.764;2023-04-03T19:26:22;1030.6;;;3.7;43.2
74431;BME280;62863;52.062;23.764;2023-04-03T19:31:42;1030.7;;;3.6;43
74431;BME280;62863;52.062;23.764;2023-04-03T19:36:24;1030.7;;;3.6;42.9
74431;BME280;62863;52.062;23.764;2023-04-03T19:41:28;1030.7;;;3.5;42.9
74431;BME280;62863;52.062;23.764;2023-04-03T19:45:58;1030.7;;;3.5;42.8
74431;BME280;62863;52.062;23.764;2023-04-03T19:51:20;1030.7;;;3.5;43
74431;BME280;62863;52.062;23.764;2023-04-03T19:56:42;1030.8;;;3.5;43.2
74431;BME280;62863;52.062;23.764;2023-04-03T20:01:32;1030.8;;;3.5;43.1
74431;BME280;62863;52.062;23.764;2023-04-03T20:06:28;1030.8;;;3.4;43.1
74431;BME280;62863;52.062;23.764;2023-04-03T20:10:58;1030.9;;;3.4;43.2
74431;BME280;62863;52.062;23.764;2023-04-03T20:16:22;1030.9;;;3.4;43.4
74431;BME280;62863;52.062;23.764;2023-04-03T20:21:36;1030.8;;;3.4;43.4
74431;BME280;62863;52.062;23.764;2023-04-03T20:26:23;1030.8;;;3.3;43.3
74431;BME280;62863;52.062;23.764;2023-04-03T20:31:14;1030.8;;;3.3;43.3
74431;BME280;62863;52.062;23.764;2023-04-03T20:36:08;1030.9;;;3.2;43.2
74431;BME280;62863;52.062;23.764;2023-04-03T20:40:58;1030.9;;;3.2;43.2
74431;BME280;62863;52.062;23.764;2023-04-03T20:46:42;1031;;;3.2;43.2
74431;BME280;62863;52.062;23.764;2023-04-03T20:51:34;1031;;;3.2;43.2
74431;BME280;62863;52.062;23.764;2023-04-03T20:56:28;1031;;;3.2;43.2
74431;BME280;62863;52.062;23.764;2023-04-03T21:01:12;1031.1;;;3.2;43.3
74431;BME280;62863;52.062;23.764;2023-04-03T21:21:28;1031.1;;;3.2;44.4
74431;BME280;62863;52.062;23.764;2023-04-03T21:25:59;1031;;;3.2;44.6
74431;BME280;62863;52.062;23.764;2023-04-03T21:31:46;1031;;;3.1;44.8
74431;BME280;62863;52.062;23.764;2023-04-03T21:36:42;1031;;;3.1;45
74431;BME280;62863;52.062;23.764;2023-04-03T21:41:12;1031;;;3.1;45.5
74431;BME280;62863;52.062;23.764;2023-04-03T21:46:28;1030.9;;;3;45.4
74431;BME280;62863;52.062;23.764;2023-04-03T21:51:01;1030.9;;;2.9;45.9
74431;BME280;62863;52.062;23.764;2023-04-03T21:56:28;1030.8;;;2.9;45.8
74431;BME280;62863;52.062;23.764;2023-04-03T22:01:42;1030.8;;;2.9;45.8
74431;BME280;62863;52.062;23.764;2023-04-03T22:06:22;1030.9;;;2.9;45.3
74431;BME280;62863;52.062;23.764;2023-04-03T22:11:28;1030.9;;;2.8;45.3
74431;BME280;62863;52.062;23.764;2023-04-03T22:16:08;1030.9;;;2.8;45.4
74431;BME280;62863;52.062;23.764;2023-04-03T22:21:22;1030.9;;;2.8;45.5
74431;BME280;62863;52.062;23.764;2023-04-03T22:26:42;1030.9;;;2.8;45.8
74431;BME280;62863;52.062;23.764;2023-04-03T22:31:22;1030.9;;;2.8;45.9
74431;BME280;62863;52.062;23.764;2023-04-03T22:36:28;1030.9;;;2.7;45.9
74431;BME280;62863;52.062;23.764;2023-04-03T22:41:08;1030.8;;;2.6;46.4
74431;BME280;62863;52.062;23.764;2023-04-03T22:46:28;1030.8;;;2.6;46.5
74431;BME280;62863;52.062;23.764;2023-04-03T22:51:42;1030.8;;;2.6;46.7
74431;BME280;62863;52.062;23.764;2023-04-03T22:56:22;1030.7;;;2.6;46.8
74431;BME280;62863;52.062;23.764;2023-04-03T23:01:26;1030.7;;;2.6;46.7
74431;BME280;62863;52.062;23.764;2023-04-03T23:05:56;1030.6;;;2.5;46.8
74431;BME280;62863;52.062;23.764;2023-04-03T23:11:26;1030.5;;;2.5;46.9
74431;BME280;62863;52.062;23.764;2023-04-03T23:16:40;1030.5;;;2.4;46.9
74431;BME280;62863;52.062;23.764;2023-04-03T23:21:20;1030.5;;;2.4;47
74431;BME280;62863;52.062;23.764;2023-04-03T23:26:10;1030.5;;;2.3;47.3
74431;BME280;62863;52.062;23.764;2023-04-03T23:31:04;1030.5;;;2.3;47.5
74431;BME280;62863;52.062;23.764;2023-04-03T23:36:24;1030.5;;;2.3;47.5
74431;BME280;62863;52.062;23.764;2023-04-03T23:41:36;1030.5;;;2.2;47.8
74431;BME280;62863;52.062;23.764;2023-04-03T23:46:08;1030.4;;;2.2;47.9
74431;BME280;62863;52.062;23.764;2023-04-03T23:51:22;1030.4;;;2.1;48.6
74431;BME280;62863;52.062;23.764;2023-04-03T23:55:54;1030.4;;;2.1;49.2
